createdAt,value
2022-07-28T00:00:22.099Z,14
2022-07-28T00:01:26.014Z,14
2022-07-28T00:02:30.030Z,14
2022-07-28T00:03:33.165Z,14
2022-07-28T00:04:35.501Z,14
2022-07-28T00:05:38.562Z,14
2022-07-28T00:06:41.668Z,14
2022-07-28T00:07:44.586Z,13.9
2022-07-28T00:08:46.881Z,13.9
2022-07-28T00:09:49.795Z,13.9
2022-07-28T00:10:52.580Z,13.9
2022-07-28T00:11:55.879Z,13.9
2022-07-28T00:12:58.862Z,13.8
2022-07-28T00:14:01.838Z,13.8
2022-07-28T00:15:04.541Z,13.8
2022-07-28T00:16:08.168Z,13.8
2022-07-28T00:17:11.560Z,13.8
2022-07-28T00:18:14.807Z,13.7
2022-07-28T00:19:17.655Z,13.7
2022-07-28T00:20:20.009Z,13.7
2022-07-28T00:21:22.872Z,13.7
2022-07-28T00:22:26.003Z,13.7
2022-07-28T00:23:40.163Z,13.7
2022-07-28T00:24:42.738Z,13.6
2022-07-28T00:25:45.589Z,13.6
2022-07-28T00:26:48.706Z,13.6
2022-07-28T00:27:51.063Z,13.6
2022-07-28T00:28:54.507Z,13.6
2022-07-28T00:29:57.128Z,13.6
2022-07-28T00:31:12.738Z,13.6
2022-07-28T00:32:18.577Z,13.5
2022-07-28T00:33:23.529Z,13.5
2022-07-28T00:34:27.695Z,13.5
2022-07-28T00:35:32.403Z,13.5
2022-07-28T00:36:36.486Z,13.5
2022-07-28T00:37:43.171Z,13.5
2022-07-28T00:38:53.687Z,13.5
2022-07-28T00:39:57.697Z,13.5
2022-07-28T00:40:59.982Z,13.5
2022-07-28T00:42:02.957Z,13.4
2022-07-28T00:43:04.974Z,13.4
2022-07-28T00:44:07.554Z,13.5
2022-07-28T00:45:11.193Z,13.4
2022-07-28T00:46:14.061Z,13.4
2022-07-28T00:47:17.320Z,13.4
2022-07-28T00:48:20.233Z,13.4
2022-07-28T00:49:24.021Z,13.4
2022-07-28T00:50:27.060Z,13.4
2022-07-28T00:51:29.896Z,13.4
2022-07-28T00:52:32.601Z,13.4
2022-07-28T00:53:36.166Z,13.4
2022-07-28T00:54:39.157Z,13.4
2022-07-28T00:56:07.672Z,13.4
2022-07-28T00:57:09.956Z,13.4
2022-07-28T00:58:12.777Z,13.4
2022-07-28T00:59:15.953Z,13.3
2022-07-28T01:00:18.576Z,13.3
2022-07-28T01:01:20.868Z,13.3
2022-07-28T01:02:24.577Z,13.3
2022-07-28T01:03:27.856Z,13.3
2022-07-28T01:04:30.505Z,13.2
2022-07-28T01:05:44.956Z,13.2
2022-07-28T01:06:47.739Z,13.2
2022-07-28T01:07:50.426Z,13.2
2022-07-28T01:08:53.000Z,13.2
2022-07-28T01:09:56.252Z,13.2
2022-07-28T01:10:59.729Z,13.2
2022-07-28T01:12:02.089Z,13.2
2022-07-28T01:13:05.212Z,13.1
2022-07-28T01:14:08.411Z,13.1
2022-07-28T01:15:11.597Z,13.1
2022-07-28T01:16:14.374Z,13.1
2022-07-28T01:17:25.897Z,13
2022-07-28T01:18:28.864Z,13.1
2022-07-28T01:19:32.082Z,13
2022-07-28T01:20:35.278Z,13
2022-07-28T01:21:37.968Z,13
2022-07-28T01:22:40.608Z,13
2022-07-28T01:23:42.952Z,13
2022-07-28T01:24:46.069Z,12.9
2022-07-28T01:25:49.576Z,12.9
2022-07-28T01:26:53.012Z,12.9
2022-07-28T01:27:56.452Z,12.9
2022-07-28T01:28:59.371Z,12.8
2022-07-28T01:30:02.191Z,12.8
2022-07-28T01:31:04.925Z,12.8
2022-07-28T01:32:07.820Z,12.8
2022-07-28T01:33:11.227Z,12.8
2022-07-28T01:34:15.540Z,12.7
2022-07-28T01:35:19.184Z,12.8
2022-07-28T01:36:22.297Z,12.7
2022-07-28T01:37:25.293Z,12.7
2022-07-28T01:38:27.947Z,12.7
2022-07-28T01:39:31.508Z,12.7
2022-07-28T01:40:34.138Z,12.7
2022-07-28T01:41:36.896Z,12.7
2022-07-28T01:42:40.174Z,12.6
2022-07-28T01:43:43.091Z,12.6
2022-07-28T01:44:46.061Z,12.6
2022-07-28T01:45:48.632Z,12.6
2022-07-28T01:46:51.479Z,12.6
2022-07-28T01:47:54.886Z,12.6
2022-07-28T01:48:57.909Z,12.6
2022-07-28T01:50:00.539Z,12.5
2022-07-28T01:51:03.715Z,12.5
2022-07-28T01:52:06.571Z,12.5
2022-07-28T01:53:09.203Z,12.5
2022-07-28T01:54:13.045Z,12.4
2022-07-28T01:55:16.584Z,12.4
2022-07-28T01:56:18.939Z,12.4
2022-07-28T01:57:22.301Z,12.4
2022-07-28T01:58:25.710Z,12.4
2022-07-28T01:59:32.679Z,12.4
2022-07-28T02:00:35.517Z,12.4
2022-07-28T02:01:38.669Z,12.4
2022-07-28T02:02:41.469Z,12.3
2022-07-28T02:03:44.101Z,12.3
2022-07-28T02:04:47.316Z,12.3
2022-07-28T02:05:50.655Z,12.3
2022-07-28T02:06:53.579Z,12.3
2022-07-28T02:07:56.535Z,12.3
2022-07-28T02:08:59.463Z,12.3
2022-07-28T02:10:02.356Z,12.2
2022-07-28T02:11:10.475Z,12.2
2022-07-28T02:12:13.312Z,12.2
2022-07-28T02:13:15.926Z,12.2
2022-07-28T02:14:19.120Z,12.2
2022-07-28T02:15:22.279Z,12.2
2022-07-28T02:16:24.682Z,12.1
2022-07-28T02:17:27.658Z,12.2
2022-07-28T02:18:31.044Z,12.1
2022-07-28T02:19:33.401Z,12.1
2022-07-28T02:20:36.616Z,12.1
2022-07-28T02:21:39.905Z,12.1
2022-07-28T02:22:42.311Z,12.1
2022-07-28T02:23:44.891Z,12
2022-07-28T02:24:47.593Z,12.1
2022-07-28T02:25:50.493Z,12
2022-07-28T02:26:53.204Z,12
2022-07-28T02:27:56.112Z,12
2022-07-28T02:28:59.083Z,12
2022-07-28T02:30:01.503Z,12
2022-07-28T02:31:04.976Z,12
2022-07-28T02:32:29.353Z,12
2022-07-28T02:34:02.814Z,12
2022-07-28T02:35:10.514Z,11.9
2022-07-28T02:36:16.475Z,11.9
2022-07-28T02:37:20.489Z,11.9
2022-07-28T02:38:23.813Z,11.9
2022-07-28T02:39:26.634Z,11.9
2022-07-28T02:40:29.845Z,11.9
2022-07-28T02:41:32.757Z,11.9
2022-07-28T02:42:35.952Z,11.9
2022-07-28T02:43:51.343Z,11.9
2022-07-28T02:44:54.529Z,11.8
2022-07-28T02:45:57.596Z,11.8
2022-07-28T02:47:01.340Z,11.8
2022-07-28T02:48:04.117Z,11.8
2022-07-28T02:49:07.044Z,11.8
2022-07-28T02:50:10.591Z,11.8
2022-07-28T02:51:14.045Z,11.8
2022-07-28T02:52:16.951Z,11.8
2022-07-28T02:53:19.228Z,11.8
2022-07-28T02:54:22.135Z,11.8
2022-07-28T02:55:24.365Z,11.7
2022-07-28T02:56:27.562Z,11.7
2022-07-28T02:57:30.827Z,11.7
2022-07-28T02:58:33.456Z,11.7
2022-07-28T02:59:36.035Z,11.7
2022-07-28T03:00:38.384Z,11.7
2022-07-28T03:01:41.643Z,11.7
2022-07-28T03:02:45.132Z,11.7
2022-07-28T03:03:47.953Z,11.7
2022-07-28T03:04:50.800Z,11.7
2022-07-28T03:05:53.153Z,11.7
2022-07-28T03:06:55.781Z,11.7
2022-07-28T03:07:58.631Z,11.7
2022-07-28T03:09:04.577Z,11.7
2022-07-28T03:10:12.132Z,11.7
2022-07-28T03:11:15.213Z,11.7
2022-07-28T03:12:18.041Z,11.7
2022-07-28T03:13:20.547Z,11.7
2022-07-28T03:14:23.609Z,11.7
2022-07-28T03:15:26.511Z,11.6
2022-07-28T03:16:29.564Z,11.6
2022-07-28T03:17:32.355Z,11.6
2022-07-28T03:18:35.543Z,11.6
2022-07-28T03:19:38.235Z,11.6
2022-07-28T03:20:41.729Z,11.6
2022-07-28T03:21:45.186Z,11.6
2022-07-28T03:22:47.891Z,11.6
2022-07-28T03:23:50.515Z,11.6
2022-07-28T03:24:53.089Z,11.6
2022-07-28T03:25:56.592Z,11.6
2022-07-28T03:26:59.711Z,11.6
2022-07-28T03:28:02.040Z,11.6
2022-07-28T03:29:05.524Z,11.6
2022-07-28T03:30:08.427Z,11.6
2022-07-28T03:31:11.768Z,11.6
2022-07-28T03:32:14.364Z,11.6
2022-07-28T03:33:16.990Z,11.6
2022-07-28T03:34:20.712Z,11.6
2022-07-28T03:35:23.876Z,11.6
2022-07-28T03:36:27.073Z,11.6
2022-07-28T03:37:29.698Z,11.6
2022-07-28T03:38:32.557Z,11.6
2022-07-28T03:39:35.483Z,11.6
2022-07-28T03:40:38.425Z,11.6
2022-07-28T03:41:41.622Z,11.5
2022-07-28T03:42:45.016Z,11.5
2022-07-28T03:43:48.004Z,11.5
2022-07-28T03:44:50.901Z,11.6
2022-07-28T03:45:53.921Z,11.6
2022-07-28T03:46:56.508Z,11.5
2022-07-28T03:47:59.731Z,11.5
2022-07-28T03:49:03.184Z,11.6
2022-07-28T03:50:06.587Z,11.5
2022-07-28T03:51:09.508Z,11.5
2022-07-28T03:52:12.700Z,11.5
2022-07-28T03:53:15.558Z,11.5
2022-07-28T03:54:18.743Z,11.5
2022-07-28T03:55:20.883Z,11.5
2022-07-28T03:56:23.797Z,11.5
2022-07-28T03:57:26.717Z,11.5
2022-07-28T03:58:30.010Z,11.5
2022-07-28T03:59:32.575Z,11.6
2022-07-28T04:00:35.514Z,11.5
2022-07-28T04:01:38.772Z,11.6
2022-07-28T04:02:42.716Z,11.6
2022-07-28T04:03:46.223Z,11.6
2022-07-28T04:04:49.351Z,11.6
2022-07-28T04:05:52.689Z,11.6
2022-07-28T04:06:56.458Z,11.6
2022-07-28T04:07:59.085Z,11.6
2022-07-28T04:09:02.281Z,11.6
2022-07-28T04:10:04.920Z,11.7
2022-07-28T04:11:07.559Z,11.7
2022-07-28T04:12:10.761Z,11.7
2022-07-28T04:13:13.439Z,11.7
2022-07-28T04:14:18.480Z,11.7
2022-07-28T04:15:22.504Z,11.8
2022-07-28T04:16:26.021Z,11.8
2022-07-28T04:17:29.197Z,11.8
2022-07-28T04:18:32.459Z,11.8
2022-07-28T04:19:35.928Z,11.8
2022-07-28T04:20:38.490Z,11.9
2022-07-28T04:21:41.613Z,11.9
2022-07-28T04:22:43.974Z,11.9
2022-07-28T04:23:46.619Z,12
2022-07-28T04:24:49.185Z,12
2022-07-28T04:25:52.378Z,12
2022-07-28T04:26:55.441Z,12
2022-07-28T04:27:58.069Z,12
2022-07-28T04:29:03.874Z,12.1
2022-07-28T04:30:06.558Z,12.1
2022-07-28T04:31:09.886Z,12.1
2022-07-28T04:32:13.571Z,12.1
2022-07-28T04:33:16.473Z,12.2
2022-07-28T04:34:19.325Z,12.2
2022-07-28T04:35:21.978Z,12.2
2022-07-28T04:36:25.456Z,12.3
2022-07-28T04:37:33.224Z,12.3
2022-07-28T04:38:36.076Z,12.3
2022-07-28T04:39:39.546Z,12.3
2022-07-28T04:40:42.736Z,12.4
2022-07-28T04:41:45.649Z,12.4
2022-07-28T04:42:49.128Z,12.4
2022-07-28T04:43:52.322Z,12.5
2022-07-28T04:44:55.892Z,12.5
2022-07-28T04:45:58.468Z,12.5
2022-07-28T04:47:07.201Z,12.5
2022-07-28T04:48:10.603Z,12.6
2022-07-28T04:49:14.275Z,12.6
2022-07-28T04:50:17.744Z,12.6
2022-07-28T04:51:20.943Z,12.6
2022-07-28T04:52:23.860Z,12.7
2022-07-28T04:53:27.079Z,12.7
2022-07-28T04:54:30.198Z,12.7
2022-07-28T04:55:33.502Z,12.8
2022-07-28T04:56:41.276Z,12.8
2022-07-28T04:57:44.390Z,12.8
2022-07-28T04:58:48.708Z,12.8
2022-07-28T04:59:51.612Z,12.9
2022-07-28T05:00:59.646Z,12.9
2022-07-28T05:02:02.924Z,12.9
2022-07-28T05:03:05.826Z,13
2022-07-28T05:04:08.274Z,13
2022-07-28T05:05:11.493Z,13
2022-07-28T05:06:15.325Z,13
2022-07-28T05:07:18.778Z,13.1
2022-07-28T05:08:26.691Z,13.1
2022-07-28T05:09:29.080Z,13.1
2022-07-28T05:10:31.942Z,13.2
2022-07-28T05:11:35.126Z,13.2
2022-07-28T05:12:38.249Z,13.2
2022-07-28T05:13:41.154Z,13.3
2022-07-28T05:14:44.003Z,13.3
2022-07-28T05:15:46.942Z,13.3
2022-07-28T05:16:50.097Z,13.3
2022-07-28T05:17:53.292Z,13.3
2022-07-28T05:18:56.413Z,13.4
2022-07-28T05:19:58.767Z,13.4
2022-07-28T05:21:05.745Z,13.4
2022-07-28T05:22:08.407Z,13.4
2022-07-28T05:23:11.098Z,13.5
2022-07-28T05:24:15.208Z,13.5
2022-07-28T05:25:19.247Z,13.5
2022-07-28T05:26:22.157Z,13.5
2022-07-28T05:27:24.843Z,13.6
2022-07-28T05:28:28.305Z,13.6
2022-07-28T05:29:48.705Z,13.6
2022-07-28T05:30:54.617Z,13.7
2022-07-28T05:31:59.124Z,13.7
2022-07-28T05:33:19.919Z,13.7
2022-07-28T05:34:22.763Z,13.8
2022-07-28T05:35:26.001Z,13.8
2022-07-28T05:36:28.837Z,13.8
2022-07-28T05:37:31.966Z,13.9
2022-07-28T05:38:34.292Z,13.9
2022-07-28T05:39:36.686Z,13.9
2022-07-28T05:40:39.848Z,13.9
2022-07-28T05:41:43.319Z,14
2022-07-28T05:42:46.449Z,14
2022-07-28T05:43:49.096Z,14
2022-07-28T05:44:52.215Z,14.1
2022-07-28T05:45:55.555Z,14.1
2022-07-28T05:46:58.742Z,14.1
2022-07-28T05:48:02.525Z,14.1
2022-07-28T05:49:05.325Z,14.2
2022-07-28T05:50:08.706Z,14.2
2022-07-28T05:51:11.000Z,14.3
2022-07-28T05:52:13.907Z,14.3
2022-07-28T05:53:17.421Z,14.3
2022-07-28T05:54:19.425Z,14.3
2022-07-28T05:55:22.561Z,14.4
2022-07-28T05:56:25.753Z,14.4
2022-07-28T05:57:28.449Z,14.4
2022-07-28T05:58:30.546Z,14.5
2022-07-28T05:59:33.591Z,14.5
2022-07-28T06:00:39.110Z,14.5
2022-07-28T06:01:42.597Z,14.6
2022-07-28T06:02:46.633Z,14.6
2022-07-28T06:04:29.170Z,14.6
2022-07-28T06:06:16.921Z,14.7
2022-07-28T06:07:20.171Z,14.7
2022-07-28T06:08:46.093Z,14.8
2022-07-28T06:09:49.732Z,14.8
2022-07-28T06:10:52.690Z,14.9
2022-07-28T06:11:56.158Z,14.9
2022-07-28T06:12:59.144Z,14.9
2022-07-28T06:14:02.222Z,14.9
2022-07-28T06:15:05.417Z,14.9
2022-07-28T06:16:14.281Z,15
2022-07-28T06:17:17.571Z,15
2022-07-28T06:18:20.760Z,15
2022-07-28T06:19:24.431Z,15.1
2022-07-28T06:20:29.157Z,15.1
2022-07-28T06:21:33.289Z,15.1
2022-07-28T06:22:36.144Z,15.2
2022-07-28T06:23:39.122Z,15.2
2022-07-28T06:24:42.307Z,15.3
2022-07-28T06:25:44.807Z,15.3
2022-07-28T06:26:47.436Z,15.3
2022-07-28T06:27:50.118Z,15.3
2022-07-28T06:28:53.933Z,15.4
2022-07-28T06:29:56.843Z,15.4
2022-07-28T06:30:59.780Z,15.4
2022-07-28T06:32:03.298Z,15.5
2022-07-28T06:33:06.044Z,15.5
2022-07-28T06:34:09.163Z,15.5
2022-07-28T06:35:12.346Z,15.6
2022-07-28T06:36:15.262Z,15.6
2022-07-28T06:37:17.889Z,15.6
2022-07-28T06:38:20.717Z,15.7
2022-07-28T06:39:23.632Z,15.7
2022-07-28T06:40:26.426Z,15.7
2022-07-28T06:41:29.749Z,15.8
2022-07-28T06:42:32.986Z,15.8
2022-07-28T06:43:39.727Z,15.8
2022-07-28T06:45:00.499Z,15.8
2022-07-28T06:46:04.214Z,15.9
2022-07-28T06:47:07.242Z,15.9
2022-07-28T06:48:10.388Z,16
2022-07-28T06:49:14.818Z,15.9
2022-07-28T06:50:27.449Z,16
2022-07-28T06:51:30.733Z,16
2022-07-28T06:52:33.430Z,16
2022-07-28T06:53:36.365Z,16.1
2022-07-28T06:54:49.517Z,16.1
2022-07-28T06:55:54.770Z,16.1
2022-07-28T06:57:01.986Z,16.2
2022-07-28T06:58:05.574Z,16.2
2022-07-28T06:59:08.487Z,16.2
2022-07-28T07:00:11.136Z,16.3
2022-07-28T07:01:14.577Z,16.3
2022-07-28T07:02:18.469Z,16.4
2022-07-28T07:03:23.671Z,16.4
2022-07-28T07:04:27.615Z,16.5
2022-07-28T07:05:30.778Z,16.5
2022-07-28T07:06:34.418Z,16.5
2022-07-28T07:07:44.396Z,16.6
2022-07-28T07:08:47.317Z,16.6
2022-07-28T07:09:50.547Z,16.7
2022-07-28T07:10:53.798Z,16.7
2022-07-28T07:12:01.387Z,16.8
2022-07-28T07:13:04.236Z,16.8
2022-07-28T07:14:06.835Z,16.8
2022-07-28T07:15:09.675Z,16.8
2022-07-28T07:16:13.098Z,16.8
2022-07-28T07:17:16.536Z,16.9
2022-07-28T07:18:19.233Z,16.9
2022-07-28T07:19:21.799Z,16.9
2022-07-28T07:20:25.057Z,17
2022-07-28T07:21:28.744Z,17
2022-07-28T07:22:31.548Z,17
2022-07-28T07:23:34.247Z,17
2022-07-28T07:24:36.954Z,17
2022-07-28T07:25:39.885Z,17.1
2022-07-28T07:26:42.742Z,17.1
2022-07-28T07:27:45.473Z,17.1
2022-07-28T07:28:48.613Z,17.1
2022-07-28T07:29:51.309Z,17.2
2022-07-28T07:30:54.306Z,17.2
2022-07-28T07:31:57.539Z,17.3
2022-07-28T07:33:00.343Z,17.3
2022-07-28T07:34:08.773Z,17.4
2022-07-28T07:35:11.975Z,17.4
2022-07-28T07:36:15.585Z,17.5
2022-07-28T07:37:19.014Z,17.5
2022-07-28T07:38:29.766Z,17.6
2022-07-28T07:39:33.103Z,17.7
2022-07-28T07:40:35.756Z,17.7
2022-07-28T07:41:39.069Z,17.8
2022-07-28T07:42:41.978Z,17.8
2022-07-28T07:43:48.687Z,17.9
2022-07-28T07:44:51.873Z,18
2022-07-28T07:45:55.056Z,18
2022-07-28T07:46:58.159Z,18.1
2022-07-28T07:48:01.237Z,18.1
2022-07-28T07:49:03.824Z,18.1
2022-07-28T07:50:06.914Z,18.2
2022-07-28T07:51:16.405Z,18.3
2022-07-28T07:52:18.685Z,18.3
2022-07-28T07:53:21.597Z,18.4
2022-07-28T07:54:24.798Z,18.4
2022-07-28T07:55:38.047Z,18.5
2022-07-28T07:56:40.635Z,18.5
2022-07-28T07:57:43.046Z,18.5
2022-07-28T07:58:46.232Z,18.6
2022-07-28T07:59:48.926Z,18.6
2022-07-28T08:00:52.159Z,18.6
2022-07-28T08:01:55.008Z,18.6
2022-07-28T08:02:58.117Z,18.7
2022-07-28T08:04:03.653Z,18.7
2022-07-28T08:05:15.479Z,18.7
2022-07-28T08:06:27.375Z,18.7
2022-07-28T08:07:31.497Z,18.7
2022-07-28T08:08:48.945Z,18.8
2022-07-28T08:09:52.442Z,18.8
2022-07-28T08:10:55.664Z,18.8
2022-07-28T08:11:58.309Z,18.9
2022-07-28T08:13:01.440Z,18.9
2022-07-28T08:14:04.929Z,18.9
2022-07-28T08:15:07.562Z,19
2022-07-28T08:16:10.400Z,19
2022-07-28T08:17:13.915Z,19
2022-07-28T08:18:16.759Z,19
2022-07-28T08:19:23.672Z,19
2022-07-28T08:20:27.520Z,19.1
2022-07-28T08:21:30.583Z,19.2
2022-07-28T08:22:33.543Z,19.3
2022-07-28T08:23:36.438Z,19.4
2022-07-28T08:24:39.352Z,19.4
2022-07-28T08:25:41.648Z,19.5
2022-07-28T08:26:44.540Z,19.5
2022-07-28T08:27:47.660Z,19.5
2022-07-28T08:28:50.396Z,19.6
2022-07-28T08:29:52.814Z,19.6
2022-07-28T08:30:55.661Z,19.7
2022-07-28T08:31:58.775Z,19.7
2022-07-28T08:33:01.677Z,19.7
2022-07-28T08:34:34.048Z,19.8
2022-07-28T08:35:38.880Z,19.9
2022-07-28T08:36:41.192Z,20
2022-07-28T08:37:43.842Z,20
2022-07-28T08:38:46.686Z,20.1
2022-07-28T08:39:49.910Z,20.1
2022-07-28T08:40:53.094Z,20.2
2022-07-28T08:41:56.223Z,20.2
2022-07-28T08:42:59.349Z,20.3
2022-07-28T08:44:01.940Z,20.3
2022-07-28T08:45:05.498Z,20.3
2022-07-28T08:46:08.235Z,20.4
2022-07-28T08:47:13.752Z,20.4
2022-07-28T08:48:16.380Z,20.4
2022-07-28T08:49:19.514Z,20.4
2022-07-28T08:50:22.773Z,20.4
2022-07-28T08:51:25.965Z,20.4
2022-07-28T08:52:28.868Z,20.5
2022-07-28T08:53:31.164Z,20.5
2022-07-28T08:54:34.067Z,20.5
2022-07-28T08:55:36.701Z,20.5
2022-07-28T08:56:39.596Z,20.5
2022-07-28T08:57:50.639Z,20.5
2022-07-28T08:58:54.105Z,20.6
2022-07-28T08:59:57.509Z,20.6
2022-07-28T09:01:00.362Z,20.6
2022-07-28T09:02:03.483Z,20.6
2022-07-28T09:03:06.302Z,20.6
2022-07-28T09:04:08.728Z,20.6
2022-07-28T09:05:12.755Z,20.7
2022-07-28T09:06:15.612Z,20.6
2022-07-28T09:07:17.968Z,20.7
2022-07-28T09:08:20.342Z,20.6
2022-07-28T09:09:23.230Z,20.7
2022-07-28T09:10:26.550Z,20.6
2022-07-28T09:11:29.722Z,20.7
2022-07-28T09:12:32.855Z,20.6
2022-07-28T09:13:36.160Z,20.6
2022-07-28T09:14:42.312Z,20.7
2022-07-28T09:15:45.841Z,20.7
2022-07-28T09:16:48.874Z,20.7
2022-07-28T09:17:51.504Z,20.5
2022-07-28T09:18:54.417Z,20.5
2022-07-28T09:19:57.596Z,20.6
2022-07-28T09:21:00.268Z,20.7
2022-07-28T09:22:02.895Z,20.8
2022-07-28T09:26:43.319Z,24
2022-07-28T09:27:46.448Z,23.6
2022-07-28T09:28:49.980Z,23.2
2022-07-28T09:29:53.211Z,22.6
2022-07-28T09:30:55.818Z,22
2022-07-28T09:31:58.893Z,21.4
2022-07-28T09:33:02.180Z,21
2022-07-28T09:34:05.382Z,20.8
2022-07-28T09:35:08.667Z,20.6
2022-07-28T09:36:11.349Z,20.5
2022-07-28T09:37:22.139Z,20.4
2022-07-28T09:38:30.886Z,20.3
2022-07-28T09:39:33.670Z,20.2
2022-07-28T09:40:36.522Z,20.1
2022-07-28T09:41:41.011Z,20
2022-07-28T09:42:44.408Z,20
2022-07-28T09:43:55.946Z,20
2022-07-28T09:45:25.403Z,20
2022-07-28T09:46:31.596Z,20.2
2022-07-28T09:47:35.680Z,21.1
2022-07-28T09:48:39.033Z,22
2022-07-28T09:49:45.730Z,22.4
2022-07-28T09:50:50.140Z,22.4
2022-07-28T09:51:52.978Z,22.6
2022-07-28T09:52:56.094Z,22.5
2022-07-28T09:53:59.081Z,22.4
2022-07-28T09:55:01.980Z,22.4
2022-07-28T09:56:04.347Z,22.5
2022-07-28T09:57:07.810Z,22.5
2022-07-28T09:58:11.652Z,22.5
2022-07-28T09:59:16.728Z,22.5
2022-07-28T10:00:23.044Z,22.6
2022-07-28T10:01:39.178Z,22.6
2022-07-28T10:02:49.685Z,22.6
2022-07-28T10:03:53.099Z,22.7
2022-07-28T10:04:55.452Z,22.8
2022-07-28T10:05:58.088Z,22.8
2022-07-28T10:07:01.268Z,22.9
2022-07-28T10:08:03.942Z,23
2022-07-28T10:09:06.852Z,23
2022-07-28T10:10:09.831Z,23.1
2022-07-28T10:11:13.068Z,23.2
2022-07-28T10:12:15.974Z,23.4
2022-07-28T10:13:19.158Z,23.5
2022-07-28T10:14:25.899Z,23.5
2022-07-28T10:15:32.214Z,23.6
2022-07-28T10:16:35.783Z,23.7
2022-07-28T10:17:40.724Z,23.8
2022-07-28T10:18:43.654Z,23.8
2022-07-28T10:19:46.287Z,23.9
2022-07-28T10:20:48.931Z,23.9
2022-07-28T10:21:52.397Z,24
2022-07-28T10:22:55.105Z,24
2022-07-28T10:23:57.950Z,24
2022-07-28T10:25:00.331Z,24.1
2022-07-28T10:26:03.172Z,24.1
2022-07-28T10:27:16.093Z,24.1
2022-07-28T10:28:18.947Z,24.1
2022-07-28T10:29:22.395Z,24.2
2022-07-28T10:30:25.014Z,24.2
2022-07-28T10:31:28.602Z,24.2
2022-07-28T10:32:31.579Z,24.3
2022-07-28T10:33:34.148Z,24.3
2022-07-28T10:34:36.941Z,24.3
2022-07-28T10:35:56.432Z,24.4
2022-07-28T10:36:59.297Z,24.4
2022-07-28T10:38:02.182Z,24.5
2022-07-28T10:39:04.198Z,24.6
2022-07-28T10:40:11.623Z,24.7
2022-07-28T10:41:14.527Z,24.8
2022-07-28T10:42:17.383Z,24.8
2022-07-28T10:43:20.548Z,24.9
2022-07-28T10:44:27.419Z,25
2022-07-28T10:46:15.691Z,25.1
2022-07-28T10:47:21.301Z,25.2
2022-07-28T10:48:38.198Z,25.3
2022-07-28T10:49:49.332Z,25.4
2022-07-28T10:50:51.671Z,25.5
2022-07-28T10:52:47.518Z,25.6
2022-07-28T10:54:02.473Z,25.7
2022-07-28T10:55:04.828Z,25.9
2022-07-28T10:56:11.622Z,26
2022-07-28T10:57:14.757Z,26.1
2022-07-28T10:58:17.987Z,26.1
2022-07-28T10:59:29.871Z,26.2
2022-07-28T11:01:04.871Z,26.3
2022-07-28T11:02:52.540Z,26.4
2022-07-28T11:03:56.463Z,26.5
2022-07-28T11:04:59.669Z,26.6
2022-07-28T11:06:02.231Z,26.6
2022-07-28T11:07:04.873Z,26.7
2022-07-28T11:08:07.228Z,26.8
2022-07-28T11:09:10.481Z,26.8
2022-07-28T11:10:13.651Z,26.9
2022-07-28T11:11:16.672Z,26.9
2022-07-28T11:12:19.848Z,27
2022-07-28T11:13:40.962Z,27.1
2022-07-28T11:14:44.962Z,27.2
2022-07-28T11:15:48.051Z,27.3
2022-07-28T11:16:57.797Z,27.3
2022-07-28T11:18:03.580Z,27.4
2022-07-28T11:19:55.552Z,27.4
2022-07-28T11:21:43.921Z,27.5
2022-07-28T11:22:55.215Z,27.5
2022-07-28T11:23:58.416Z,27.5
2022-07-28T11:25:23.246Z,27.5
2022-07-28T11:26:26.128Z,27.5
2022-07-28T11:27:29.189Z,27.6
2022-07-28T11:28:32.374Z,27.6
2022-07-28T11:29:35.895Z,27.6
2022-07-28T11:30:39.079Z,27.7
2022-07-28T11:31:42.210Z,27.7
2022-07-28T11:32:45.380Z,27.8
2022-07-28T11:33:48.307Z,27.8
2022-07-28T11:34:51.770Z,27.9
2022-07-28T11:35:54.397Z,27.9
2022-07-28T11:36:57.299Z,28
2022-07-28T11:37:59.943Z,28
2022-07-28T11:39:02.811Z,28.1
2022-07-28T11:40:05.624Z,28.2
2022-07-28T11:41:08.200Z,28.2
2022-07-28T11:42:14.209Z,28.3
2022-07-28T11:43:29.964Z,28.4
2022-07-28T11:44:43.339Z,28.4
2022-07-28T11:45:56.739Z,28.5
2022-07-28T11:47:02.498Z,28.6
2022-07-28T11:48:05.420Z,28.6
2022-07-28T11:49:17.324Z,28.7
2022-07-28T11:50:21.356Z,28.8
2022-07-28T11:51:27.573Z,28.8
2022-07-28T11:52:56.909Z,28.9
2022-07-28T11:54:00.023Z,29
2022-07-28T11:55:03.148Z,29.1
2022-07-28T11:56:06.065Z,29.2
2022-07-28T11:57:08.967Z,29.2
2022-07-28T11:58:12.071Z,29.3
2022-07-28T11:59:14.729Z,29.3
2022-07-28T12:00:24.655Z,29.4
2022-07-28T12:01:38.860Z,29.4
2022-07-28T12:02:42.340Z,29.5
2022-07-28T12:03:59.681Z,29.4
2022-07-28T12:05:06.098Z,29.5
2022-07-28T12:06:08.943Z,29.5
2022-07-28T12:07:12.451Z,29.5
2022-07-28T12:08:15.315Z,29.5
2022-07-28T12:09:37.187Z,29.6
2022-07-28T12:10:56.876Z,29.6
2022-07-28T12:12:00.368Z,29.6
2022-07-28T12:13:02.873Z,29.6
2022-07-28T12:14:06.177Z,29.6
2022-07-28T12:15:08.592Z,29.7
2022-07-28T12:16:11.495Z,29.7
2022-07-28T12:17:15.323Z,29.7
2022-07-28T12:18:19.314Z,29.8
2022-07-28T12:19:33.721Z,29.8
2022-07-28T12:20:40.620Z,29.8
2022-07-28T12:21:49.711Z,29.9
2022-07-28T12:22:52.548Z,29.9
2022-07-28T12:23:55.571Z,29.9
2022-07-28T12:24:58.265Z,29.9
2022-07-28T12:26:03.234Z,29.9
2022-07-28T12:27:06.297Z,29.9
2022-07-28T12:28:10.973Z,29.9
2022-07-28T12:29:15.255Z,29.9
2022-07-28T12:30:19.929Z,30
2022-07-28T12:31:26.502Z,30
2022-07-28T12:32:32.598Z,30
2022-07-28T12:33:35.522Z,30
2022-07-28T12:34:39.022Z,30
2022-07-28T12:35:42.570Z,30
2022-07-28T12:36:47.994Z,30.1
2022-07-28T12:37:50.910Z,30.1
2022-07-28T12:38:53.625Z,30.1
2022-07-28T12:39:56.213Z,30.1
2022-07-28T12:40:59.413Z,30.1
2022-07-28T12:42:02.043Z,30.1
2022-07-28T12:43:05.235Z,30.2
2022-07-28T12:44:07.926Z,30.2
2022-07-28T12:45:11.097Z,30.2
2022-07-28T12:46:14.393Z,30.3
2022-07-28T12:47:17.904Z,30.3
2022-07-28T12:48:20.824Z,30.3
2022-07-28T12:49:24.108Z,30.3
2022-07-28T12:50:27.375Z,30.3
2022-07-28T12:51:30.497Z,30.3
2022-07-28T12:52:33.461Z,30.4
2022-07-28T12:53:35.836Z,30.4
2022-07-28T12:54:37.926Z,30.4
2022-07-28T12:55:41.049Z,30.4
2022-07-28T12:56:43.612Z,30.4
2022-07-28T12:57:51.940Z,30.4
2022-07-28T12:58:54.878Z,30.5
2022-07-28T12:59:57.183Z,30.5
2022-07-28T13:01:00.735Z,30.5
2022-07-28T13:02:04.228Z,30.5
2022-07-28T13:03:07.223Z,30.5
2022-07-28T13:04:10.006Z,30.5
2022-07-28T13:05:14.626Z,30.5
2022-07-28T13:06:17.257Z,30.5
2022-07-28T13:07:20.159Z,30.5
2022-07-28T13:08:23.375Z,30.6
2022-07-28T13:09:36.075Z,30.6
2022-07-28T13:10:40.804Z,30.6
2022-07-28T13:11:48.367Z,30.6
2022-07-28T13:12:51.674Z,30.6
2022-07-28T13:13:54.826Z,30.7
2022-07-28T13:14:57.762Z,30.7
2022-07-28T13:16:01.021Z,30.8
2022-07-28T13:17:04.459Z,30.8
2022-07-28T13:18:06.763Z,30.9
2022-07-28T13:19:10.085Z,30.9
2022-07-28T13:20:13.231Z,30.9
2022-07-28T13:21:16.721Z,30.9
2022-07-28T13:22:19.355Z,30.9
2022-07-28T13:23:22.474Z,31
2022-07-28T13:24:25.323Z,31
2022-07-28T13:25:28.027Z,31
2022-07-28T13:26:31.210Z,31.1
2022-07-28T13:27:34.135Z,31.1
2022-07-28T13:28:37.269Z,31.1
2022-07-28T13:29:40.733Z,31.2
2022-07-28T13:30:43.913Z,31.2
2022-07-28T13:31:47.471Z,31.2
2022-07-28T13:32:50.598Z,31.2
2022-07-28T13:33:54.557Z,31.2
2022-07-28T13:34:57.765Z,31.2
2022-07-28T13:36:01.396Z,31.3
2022-07-28T13:37:04.609Z,31.2
2022-07-28T13:38:07.528Z,31.2
2022-07-28T13:39:10.463Z,31.3
2022-07-28T13:40:13.205Z,31.2
2022-07-28T13:41:16.403Z,31.3
2022-07-28T13:42:20.193Z,31.3
2022-07-28T13:43:37.294Z,31.3
2022-07-28T13:44:40.426Z,31.3
2022-07-28T13:45:43.500Z,31.4
2022-07-28T13:46:50.359Z,31.4
2022-07-28T13:47:54.283Z,31.5
2022-07-28T13:49:00.839Z,31.5
2022-07-28T13:50:05.246Z,31.6
2022-07-28T13:51:14.483Z,31.6
2022-07-28T13:52:37.213Z,31.6
2022-07-28T13:53:42.648Z,31.6
2022-07-28T13:54:45.802Z,31.6
2022-07-28T13:55:48.721Z,31.7
2022-07-28T13:56:51.844Z,31.7
2022-07-28T13:57:57.364Z,31.8
2022-07-28T13:59:03.505Z,31.8
2022-07-28T14:00:14.652Z,31.9
2022-07-28T14:01:21.810Z,31.9
2022-07-28T14:02:27.964Z,31.9
2022-07-28T14:03:58.490Z,32
2022-07-28T14:05:01.625Z,32
2022-07-28T14:06:04.345Z,32.1
2022-07-28T14:07:07.274Z,32.1
2022-07-28T14:08:11.397Z,32.2
2022-07-28T14:09:22.150Z,32.2
2022-07-28T14:10:28.213Z,32.2
2022-07-28T14:11:36.962Z,32.3
2022-07-28T14:12:40.540Z,32.3
2022-07-28T14:13:49.901Z,32.4
2022-07-28T14:14:52.496Z,32.4
2022-07-28T14:16:14.739Z,32.4
2022-07-28T14:17:46.682Z,32.5
2022-07-28T14:18:50.824Z,32.5
2022-07-28T14:19:53.949Z,32.5
2022-07-28T14:20:56.933Z,32.6
2022-07-28T14:22:00.271Z,32.6
2022-07-28T14:23:03.731Z,32.5
2022-07-28T14:24:06.643Z,32.5
2022-07-28T14:25:08.986Z,32.6
2022-07-28T14:26:36.428Z,32.6
2022-07-28T14:27:39.499Z,32.6
2022-07-28T14:28:42.179Z,32.6
2022-07-28T14:29:45.092Z,32.6
2022-07-28T14:30:47.814Z,32.6
2022-07-28T14:31:51.201Z,32.7
2022-07-28T14:32:54.352Z,32.7